createdAt,value
2023-02-04T00:04:18.325Z,100.00
2023-02-04T00:09:20.056Z,100.00
2023-02-04T00:14:21.712Z,100.00
2023-02-04T00:19:23.442Z,100.00
2023-02-04T00:24:25.278Z,100.00
2023-02-04T00:29:26.994Z,100.00
2023-02-04T00:34:28.688Z,100.00
2023-02-04T00:39:30.355Z,100.00
2023-02-04T00:44:32.205Z,100.00
2023-02-04T00:49:34.995Z,98.20
2023-02-04T00:54:36.709Z,99.50
2023-02-04T00:59:38.507Z,99.80
2023-02-04T01:04:40.211Z,99.95
2023-02-04T01:09:42.064Z,100.00
2023-02-04T01:14:43.771Z,100.00
2023-02-04T01:19:45.824Z,99.92
2023-02-04T01:24:48.990Z,98.40
2023-02-04T01:30:10.660Z,97.81
2023-02-04T01:35:12.725Z,97.93
2023-02-04T01:40:14.813Z,97.98
2023-02-04T01:45:16.604Z,100.00
2023-02-04T01:50:18.650Z,100.00
2023-02-04T01:55:24.032Z,100.00
2023-02-04T02:00:31.999Z,100.00
2023-02-04T02:05:41.429Z,100.00
2023-02-04T02:10:45.739Z,100.00
2023-02-04T02:15:48.090Z,96.76
2023-02-04T02:20:50.072Z,95.85
2023-02-04T02:25:52.146Z,94.97
2023-02-04T02:30:53.983Z,96.06
2023-02-04T02:35:55.834Z,95.68
2023-02-04T02:41:00.039Z,96.63
2023-02-04T02:46:02.179Z,99.12
2023-02-04T02:51:04.323Z,99.13
2023-02-04T02:56:06.667Z,99.90
2023-02-04T03:01:14.525Z,96.99
2023-02-04T03:06:20.561Z,97.64
2023-02-04T03:11:26.198Z,96.56
2023-02-04T03:16:30.416Z,96.72
2023-02-04T03:21:32.488Z,99.20
2023-02-04T03:26:34.339Z,100.00
2023-02-04T03:31:37.911Z,100.00
2023-02-04T03:36:39.589Z,100.00
2023-02-04T03:41:41.279Z,100.00
2023-02-04T03:46:43.057Z,100.00
2023-02-04T03:51:44.757Z,100.00
2023-02-04T03:56:46.640Z,100.00
2023-02-04T04:01:48.349Z,100.00
2023-02-04T04:06:50.087Z,100.00
2023-02-04T04:11:51.790Z,100.00
2023-02-04T04:16:53.463Z,100.00
2023-02-04T04:21:55.176Z,99.00
2023-02-04T04:26:57.000Z,99.48
2023-02-04T04:31:58.712Z,100.00
2023-02-04T04:37:00.500Z,100.00
2023-02-04T04:42:02.277Z,100.00
2023-02-04T04:47:04.015Z,100.00
2023-02-04T04:52:05.810Z,100.00
2023-02-04T04:57:07.495Z,100.00
2023-02-04T05:02:09.176Z,100.00
2023-02-04T05:07:10.854Z,100.00
2023-02-04T05:12:12.487Z,100.00
2023-02-04T05:17:14.368Z,100.00
2023-02-04T05:22:16.146Z,99.42
2023-02-04T05:27:17.844Z,99.21
2023-02-04T05:32:19.592Z,98.05
2023-02-04T05:37:21.359Z,97.62
2023-02-04T05:42:23.071Z,97.19
2023-02-04T05:47:24.968Z,96.82
2023-02-04T05:52:26.707Z,96.63
2023-02-04T05:57:28.460Z,95.92
2023-02-04T06:02:30.211Z,96.54
2023-02-04T06:07:31.936Z,95.46
2023-02-04T06:12:33.691Z,96.02
2023-02-04T06:17:35.530Z,97.26
2023-02-04T06:22:37.226Z,96.24
2023-02-04T06:27:59.001Z,97.28
2023-02-04T06:33:00.754Z,97.20
2023-02-04T06:38:02.503Z,96.27
2023-02-04T06:43:04.630Z,97.86
2023-02-04T06:48:06.443Z,98.34
2023-02-04T06:53:08.161Z,98.14
2023-02-04T06:58:09.862Z,98.08
2023-02-04T07:03:11.588Z,97.69
2023-02-04T07:08:13.417Z,99.66
2023-02-04T07:13:15.256Z,100.00
2023-02-04T07:18:18.060Z,99.14
2023-02-04T07:23:19.791Z,100.00
2023-02-04T07:28:22.223Z,100.00
2023-02-04T07:33:24.014Z,100.00
2023-02-04T07:38:25.683Z,100.00
2023-02-04T07:43:28.682Z,100.00
2023-02-04T07:48:30.565Z,100.00
2023-02-04T07:53:32.294Z,100.00
2023-02-04T07:58:34.006Z,100.00
2023-02-04T08:03:37.098Z,100.00
2023-02-04T08:08:38.943Z,100.00
2023-02-04T08:13:40.683Z,100.00
2023-02-04T08:18:42.458Z,100.00
2023-02-04T08:23:44.120Z,100.00
2023-02-04T08:28:46.001Z,100.00
2023-02-04T08:33:47.752Z,100.00
2023-02-04T08:38:49.544Z,100.00
2023-02-04T08:43:51.369Z,100.00
2023-02-04T08:48:53.078Z,100.00
2023-02-04T08:53:54.724Z,100.00
2023-02-04T08:58:56.431Z,99.80
2023-02-04T09:03:58.188Z,100.00
2023-02-04T09:08:59.869Z,99.84
2023-02-04T09:14:01.572Z,100.00
2023-02-04T09:19:03.493Z,98.56
2023-02-04T09:24:05.163Z,99.67
2023-02-04T09:29:06.840Z,99.07
2023-02-04T09:34:08.645Z,98.05
2023-02-04T09:39:10.426Z,97.88
2023-02-04T09:44:17.675Z,97.27
2023-02-04T09:49:19.478Z,96.88
2023-02-04T09:54:23.127Z,95.70
2023-02-04T09:59:28.803Z,95.22
2023-02-04T10:04:30.798Z,96.15
2023-02-04T10:09:32.514Z,95.50
2023-02-04T10:14:34.446Z,95.13
2023-02-04T10:19:36.256Z,93.75
2023-02-04T10:24:38.602Z,93.82
2023-02-04T10:29:42.245Z,93.13
2023-02-04T10:34:43.960Z,94.37
2023-02-04T10:39:46.375Z,91.12
2023-02-04T10:44:48.613Z,89.40
2023-02-04T10:50:02.954Z,91.51
2023-02-04T10:55:08.089Z,89.89
2023-02-04T11:00:28.161Z,91.87
2023-02-04T11:05:32.812Z,90.40
2023-02-04T11:10:35.090Z,91.47
2023-02-04T11:15:50.510Z,88.13
2023-02-04T11:20:55.696Z,87.52
2023-02-04T11:26:08.536Z,85.08
2023-02-04T11:31:22.866Z,84.23
2023-02-04T11:36:24.610Z,77.66
2023-02-04T11:41:30.818Z,76.90
2023-02-04T11:46:32.557Z,80.27
2023-02-04T11:51:35.085Z,79.68
2023-02-04T11:56:36.763Z,80.30
2023-02-04T12:01:38.994Z,78.12
2023-02-04T12:06:40.622Z,77.53
2023-02-04T12:11:55.829Z,79.89
2023-02-04T12:16:57.616Z,80.08
2023-02-04T12:21:59.344Z,79.82
2023-02-04T12:27:01.059Z,81.08
2023-02-04T12:32:02.906Z,81.04
2023-02-04T12:37:04.727Z,81.71
2023-02-04T12:42:06.435Z,81.29
2023-02-04T12:47:08.086Z,77.25
2023-02-04T12:52:09.835Z,78.56
2023-02-04T12:57:11.846Z,75.44
2023-02-04T13:02:13.613Z,74.87
2023-02-04T13:07:15.476Z,75.25
2023-02-04T13:12:17.377Z,76.11
2023-02-04T13:17:19.203Z,76.01
2023-02-04T13:22:20.854Z,74.60
2023-02-04T13:27:22.554Z,75.39
2023-02-04T13:32:24.241Z,74.50
2023-02-04T13:37:26.035Z,72.66
2023-02-04T13:42:27.897Z,71.41
2023-02-04T13:47:29.570Z,72.47
2023-02-04T13:52:31.370Z,73.28
2023-02-04T13:57:33.216Z,74.28
2023-02-04T14:02:34.925Z,73.29
2023-02-04T14:07:36.693Z,74.23
2023-02-04T14:12:38.323Z,74.40
2023-02-04T14:17:39.964Z,73.35
2023-02-04T14:22:41.706Z,73.29
2023-02-04T14:27:43.421Z,73.39
2023-02-04T14:32:45.153Z,74.45
2023-02-04T14:37:47.076Z,75.08
2023-02-04T14:42:48.776Z,74.91
2023-02-04T14:47:52.649Z,75.82
2023-02-04T14:52:56.753Z,73.95
2023-02-04T14:57:58.395Z,72.66
2023-02-04T15:03:00.047Z,68.42
2023-02-04T15:08:01.747Z,68.65
2023-02-04T15:13:03.534Z,67.26
2023-02-04T15:18:05.357Z,67.76
2023-02-04T15:23:07.158Z,68.35
2023-02-04T15:28:11.665Z,69.40
2023-02-04T15:33:13.965Z,70.64
2023-02-04T15:38:15.606Z,71.38
2023-02-04T15:43:17.363Z,72.40
2023-02-04T15:48:20.133Z,73.54
2023-02-04T15:53:21.989Z,74.32
2023-02-04T15:58:24.841Z,74.69
2023-02-04T16:03:26.645Z,74.58
2023-02-04T16:08:28.330Z,74.90
2023-02-04T16:13:29.982Z,75.86
2023-02-04T16:18:31.648Z,75.03
2023-02-04T16:23:33.352Z,75.55
2023-02-04T16:28:35.101Z,75.08
2023-02-04T16:33:36.878Z,76.08
2023-02-04T16:38:44.963Z,77.19
2023-02-04T16:43:46.707Z,75.91
2023-02-04T16:48:48.336Z,76.67
2023-02-04T16:53:50.446Z,77.81
2023-02-04T16:58:52.185Z,78.37
2023-02-04T17:03:58.146Z,77.57
2023-02-04T17:08:59.816Z,77.98
2023-02-04T17:14:04.165Z,78.22
2023-02-04T17:19:05.793Z,78.49
2023-02-04T17:24:08.428Z,78.92
2023-02-04T17:29:13.299Z,78.46
2023-02-04T17:34:14.981Z,79.26
2023-02-04T17:39:16.621Z,79.38
2023-02-04T17:44:20.031Z,80.06
2023-02-04T17:49:21.743Z,79.86
2023-02-04T17:54:23.820Z,79.68
2023-02-04T17:59:26.181Z,79.37
2023-02-04T18:04:28.289Z,78.90
2023-02-04T18:09:30.369Z,78.52
2023-02-04T18:14:32.761Z,78.59
2023-02-04T18:19:39.574Z,79.27
2023-02-04T18:24:44.366Z,80.30
2023-02-04T18:29:50.432Z,79.84
2023-02-04T18:34:57.694Z,80.32
2023-02-04T18:40:08.680Z,80.08
2023-02-04T18:45:26.929Z,79.60
2023-02-04T18:50:33.989Z,80.50
2023-02-04T18:55:37.363Z,81.39
2023-02-04T19:00:39.286Z,80.75
2023-02-04T19:05:49.221Z,79.56
2023-02-04T19:10:53.104Z,80.04
2023-02-04T19:15:58.190Z,81.15
2023-02-04T19:21:28.741Z,81.69
2023-02-04T19:26:33.755Z,81.69
2023-02-04T19:31:37.317Z,82.41
2023-02-04T19:36:40.017Z,82.66
2023-02-04T19:41:48.159Z,82.34
2023-02-04T19:46:49.837Z,81.82
2023-02-04T19:51:54.258Z,82.12
2023-02-04T19:56:56.118Z,81.47
2023-02-04T20:02:07.176Z,81.71
2023-02-04T20:07:29.215Z,82.71
2023-02-04T20:12:32.676Z,82.50
2023-02-04T20:17:46.833Z,81.39
2023-02-04T20:22:52.764Z,80.41
2023-02-04T20:27:58.578Z,80.38
2023-02-04T20:33:19.712Z,79.70
2023-02-04T20:38:22.245Z,79.61
2023-02-04T20:43:24.617Z,80.01
2023-02-04T20:48:32.492Z,81.37
2023-02-04T20:53:39.050Z,81.55
2023-02-04T20:58:45.826Z,81.52
2023-02-04T21:03:50.895Z,82.13
2023-02-04T21:08:54.630Z,82.14
2023-02-04T21:13:57.075Z,82.95
2023-02-04T21:18:58.982Z,83.40
2023-02-04T21:24:00.837Z,80.84
2023-02-04T21:29:02.902Z,78.85
2023-02-04T21:34:05.975Z,77.47
2023-02-04T21:39:08.222Z,76.51
2023-02-04T21:44:10.046Z,77.90
2023-02-04T21:49:11.937Z,76.93
2023-02-04T21:54:13.837Z,74.88
2023-02-04T21:59:18.658Z,74.56
2023-02-04T22:04:20.344Z,71.80
2023-02-04T22:09:22.009Z,73.04
2023-02-04T22:14:23.665Z,73.82
2023-02-04T22:19:25.829Z,74.49
2023-02-04T22:24:27.672Z,73.85
2023-02-04T22:29:31.947Z,74.09
2023-02-04T22:34:33.715Z,73.57
2023-02-04T22:39:35.332Z,74.29
2023-02-04T22:44:37.030Z,74.65
2023-02-04T22:49:39.153Z,74.85
2023-02-04T22:54:43.254Z,73.61
2023-02-04T22:59:45.145Z,73.25
2023-02-04T23:04:46.994Z,75.64
2023-02-04T23:09:49.013Z,75.96
2023-02-04T23:14:50.837Z,74.77
2023-02-04T23:19:52.606Z,74.81
2023-02-04T23:24:54.295Z,75.36
2023-02-04T23:29:56.039Z,75.90
2023-02-04T23:34:57.734Z,75.24
2023-02-04T23:39:59.643Z,74.11
2023-02-04T23:45:01.310Z,75.46
2023-02-04T23:50:04.175Z,76.21
2023-02-04T23:55:06.318Z,76.18
